Time;durP1;ratioP1;P1;durP2;ratioP2;P2;SDS_P1;SDS_P2;PMS_P1;PMS_P2;Temp;Humidity;BMP_temperature;BMP_pressure;BME280_temperature;BME280_humidity;BME280_pressure;Samples;Min_cycle;Max_cycle;Signal;HPM_P1;HPM_P2
2022/01/07 00:01:35;;;;;;;14.32;9.60;;;16.70;59.30;;;;;;4970705;28;20019;-78
2022/01/07 00:04:00;;;;;;;15.63;9.65;;;16.60;59.20;;;;;;4970885;28;20035;-78
2022/01/07 00:06:26;;;;;;;14.10;9.13;;;16.60;59.20;;;;;;4970702;28;20054;-78
2022/01/07 00:08:55;;;;;;;14.77;8.75;;;16.60;59.00;;;;;;4970477;28;20041;-79
2022/01/07 00:11:21;;;;;;;13.90;9.05;;;16.60;58.90;;;;;;4971404;28;20023;-78
2022/01/07 00:13:48;;;;;;;12.45;8.50;;;16.60;58.80;;;;;;4971125;28;20055;-79
2022/01/07 00:16:16;;;;;;;12.93;8.68;;;16.70;58.90;;;;;;4971820;28;20031;-78
2022/01/07 00:18:44;;;;;;;12.63;8.55;;;16.60;58.90;;;;;;4974034;28;20039;-78
2022/01/07 00:21:10;;;;;;;11.82;8.57;;;16.70;58.80;;;;;;4978181;28;20050;-78
2022/01/07 00:23:36;;;;;;;13.07;8.35;;;16.70;58.70;;;;;;4977919;28;20031;-78
2022/01/07 00:26:03;;;;;;;11.65;8.15;;;16.70;58.70;;;;;;4970746;28;20054;-78
2022/01/07 00:28:29;;;;;;;12.35;8.20;;;16.70;58.70;;;;;;4969306;28;20089;-78
2022/01/07 00:30:55;;;;;;;11.98;8.45;;;16.70;58.50;;;;;;4969063;28;20045;-78
2022/01/07 00:33:21;;;;;;;11.70;8.18;;;16.70;58.40;;;;;;4951607;28;20394;-78
2022/01/07 00:35:47;;;;;;;10.25;7.35;;;16.70;58.30;;;;;;4969132;28;20026;-78
2022/01/07 00:38:13;;;;;;;12.38;7.75;;;16.70;58.30;;;;;;4968579;28;20027;-78
2022/01/07 00:40:38;;;;;;;10.15;7.28;;;16.70;58.30;;;;;;4968746;28;20034;-78
2022/01/07 00:43:04;;;;;;;9.18;7.00;;;16.70;58.20;;;;;;4967892;28;20027;-78
2022/01/07 00:45:31;;;;;;;10.95;6.90;;;16.70;58.10;;;;;;4967869;28;20077;-78
2022/01/07 00:47:57;;;;;;;11.50;7.45;;;16.70;58.00;;;;;;4968183;28;20117;-78
2022/01/07 00:50:26;;;;;;;10.70;6.90;;;16.70;57.90;;;;;;4968295;28;20619;-78
2022/01/07 00:52:53;;;;;;;9.23;6.68;;;16.80;57.90;;;;;;4968101;28;20031;-78
2022/01/07 00:55:18;;;;;;;10.85;7.18;;;16.80;57.80;;;;;;4968231;28;20398;-78
2022/01/07 00:57:46;;;;;;;10.55;7.20;;;16.80;57.80;;;;;;4968193;28;20467;-78
2022/01/07 01:00:14;;;;;;;9.32;6.40;;;16.80;57.80;;;;;;4968093;28;20033;-78
2022/01/07 01:02:41;;;;;;;10.93;6.75;;;16.80;57.60;;;;;;4968678;28;20023;-78
2022/01/07 01:05:09;;;;;;;9.65;6.40;;;16.80;57.50;;;;;;4968658;28;20552;-77
2022/01/07 01:07:35;;;;;;;8.50;6.43;;;16.80;57.50;;;;;;4968324;28;20031;-78
2022/01/07 01:10:05;;;;;;;9.55;6.28;;;16.80;57.50;;;;;;4968457;28;20039;-78
2022/01/07 01:12:32;;;;;;;9.52;6.35;;;16.80;57.40;;;;;;4953983;28;20533;-78
2022/01/07 01:14:58;;;;;;;8.60;5.80;;;16.80;57.40;;;;;;4971716;28;20023;-78
2022/01/07 01:17:24;;;;;;;10.25;6.00;;;16.80;57.30;;;;;;4972348;28;20106;-78
2022/01/07 01:19:49;;;;;;;12.00;6.68;;;16.80;57.20;;;;;;4972008;28;20032;-78
2022/01/07 01:22:15;;;;;;;9.10;6.28;;;16.80;57.30;;;;;;4971923;28;20027;-78
2022/01/07 01:24:41;;;;;;;7.03;5.35;;;16.80;57.20;;;;;;4971830;28;20030;-78
2022/01/07 01:27:06;;;;;;;8.13;5.82;;;16.70;57.20;;;;;;4971775;28;20089;-78
2022/01/07 01:29:32;;;;;;;7.78;5.30;;;16.70;57.20;;;;;;4971930;28;20046;-78
2022/01/07 01:31:58;;;;;;;9.63;6.13;;;16.70;57.10;;;;;;4972370;28;20031;-78
2022/01/07 01:34:23;;;;;;;8.52;5.53;;;16.70;57.20;;;;;;4971825;28;20076;-77
2022/01/07 01:36:49;;;;;;;9.32;5.40;;;16.70;57.30;;;;;;4971693;28;20037;-77
2022/01/07 01:39:15;;;;;;;7.75;5.25;;;16.70;57.30;;;;;;4971835;28;20137;-78
2022/01/07 01:41:42;;;;;;;8.85;5.60;;;16.70;57.20;;;;;;4971685;28;20044;-78
2022/01/07 01:44:08;;;;;;;8.27;5.43;;;16.70;57.20;;;;;;4970958;28;20047;-77
2022/01/07 01:46:34;;;;;;;8.55;5.65;;;16.70;57.20;;;;;;4971735;28;20097;-77
2022/01/07 01:48:59;;;;;;;8.05;5.13;;;16.60;57.10;;;;;;4971335;28;20486;-77
2022/01/07 01:51:25;;;;;;;8.88;5.10;;;16.60;57.10;;;;;;4971645;28;20041;-77
2022/01/07 01:53:51;;;;;;;9.02;5.60;;;16.60;57.10;;;;;;4953817;28;20108;-77
2022/01/07 01:56:16;;;;;;;9.50;5.75;;;16.60;57.00;;;;;;4971334;28;20470;-77
2022/01/07 01:58:42;;;;;;;8.50;5.40;;;16.60;57.00;;;;;;4971696;28;20051;-76
2022/01/07 02:01:08;;;;;;;7.85;5.20;;;16.60;56.90;;;;;;4973232;28;20027;-77
2022/01/07 02:03:34;;;;;;;9.73;5.30;;;16.60;56.90;;;;;;4976575;28;20035;-77
2022/01/07 02:05:59;;;;;;;8.10;5.47;;;16.60;56.90;;;;;;4977101;28;20046;-77
2022/01/07 02:08:25;;;;;;;6.82;4.55;;;16.60;57.00;;;;;;4975801;28;20110;-77
2022/01/07 02:10:51;;;;;;;9.48;5.05;;;16.60;56.90;;;;;;4971336;28;20038;-77
2022/01/07 02:13:18;;;;;;;7.50;4.97;;;16.50;56.80;;;;;;4971447;28;20030;-77
2022/01/07 02:15:44;;;;;;;7.72;4.82;;;16.60;56.80;;;;;;4971188;28;20053;-76
2022/01/07 02:18:09;;;;;;;7.47;4.88;;;16.50;56.80;;;;;;4971069;28;20023;-77
2022/01/07 02:20:35;;;;;;;8.57;4.90;;;16.50;57.70;;;;;;4953482;28;20042;-77
2022/01/07 02:23:02;;;;;;;9.13;4.95;;;16.60;56.80;;;;;;4970974;28;20039;-77
2022/01/07 02:25:28;;;;;;;6.85;4.93;;;16.50;56.70;;;;;;4971251;28;20122;-77
2022/01/07 02:27:54;;;;;;;7.10;4.22;;;16.50;56.80;;;;;;4971183;28;20023;-77
2022/01/07 02:30:26;;;;;;;5.93;4.20;;;16.50;56.60;;;;;;4971317;28;20062;-77
2022/01/07 02:32:52;;;;;;;8.30;4.75;;;16.50;56.60;;;;;;4953384;28;20375;-77
2022/01/07 02:35:21;;;;;;;6.82;4.22;;;16.50;56.60;;;;;;4953790;28;20374;-77
2022/01/07 02:37:47;;;;;;;7.32;4.18;;;16.50;56.60;;;;;;4971203;28;20054;-77
2022/01/07 02:40:13;;;;;;;6.25;4.20;;;16.50;56.60;;;;;;4970871;28;20043;-77
2022/01/07 02:42:39;;;;;;;7.13;4.35;;;16.50;56.60;;;;;;4970709;28;20037;-78
2022/01/07 02:45:08;;;;;;;7.40;4.35;;;16.50;56.50;;;;;;4970098;28;20051;-77
2022/01/07 02:50:20;;;;;;;6.95;4.40;;;16.50;56.40;;;;;;4971009;28;20648;-77
2022/01/07 02:52:47;;;;;;;7.47;4.40;;;16.50;56.50;;;;;;4970862;28;20034;-77
2022/01/07 02:55:12;;;;;;;6.05;3.90;;;16.50;56.50;;;;;;4970622;28;20035;-77
2022/01/07 02:57:38;;;;;;;7.22;4.10;;;16.50;56.60;;;;;;4970816;28;20027;-77
2022/01/07 03:00:06;;;;;;;5.72;4.00;;;16.50;56.50;;;;;;4971360;28;20031;-77
2022/01/07 03:02:32;;;;;;;7.00;3.92;;;16.50;56.50;;;;;;4970960;28;20039;-78
2022/01/07 03:04:58;;;;;;;6.88;4.18;;;16.50;56.50;;;;;;4970733;28;20371;-77
2022/01/07 03:07:24;;;;;;;5.85;3.90;;;16.50;56.20;;;;;;4971310;28;20034;-77
2022/01/07 03:09:49;;;;;;;6.28;3.80;;;16.60;56.00;;;;;;4970855;28;20886;-77
2022/01/07 03:12:15;;;;;;;6.35;3.63;;;16.60;55.80;;;;;;4970364;28;20035;-78
2022/01/07 03:14:41;;;;;;;6.22;3.70;;;16.60;55.80;;;;;;4970470;28;20089;-77
2022/01/07 03:17:06;;;;;;;5.93;3.50;;;16.60;55.70;;;;;;4970395;28;20045;-78
2022/01/07 03:19:34;;;;;;;5.75;3.65;;;16.60;55.50;;;;;;4970081;28;20109;-78
2022/01/07 03:21:59;;;;;;;6.32;3.72;;;16.60;55.30;;;;;;4970774;28;20040;-78
2022/01/07 03:24:25;;;;;;;5.05;3.30;;;16.60;55.30;;;;;;4970501;28;20105;-78
2022/01/07 03:26:50;;;;;;;5.45;3.50;;;16.70;55.40;;;;;;4970106;28;20101;-78
2022/01/07 03:29:16;;;;;;;5.70;3.80;;;16.70;56.20;;;;;;4969718;28;20035;-77
2022/01/07 03:31:41;;;;;;;5.03;3.17;;;16.70;55.20;;;;;;4970235;28;20045;-78
2022/01/07 03:34:07;;;;;;;5.47;3.13;;;16.70;55.20;;;;;;4969033;28;20105;-78
2022/01/07 03:36:32;;;;;;;5.53;3.47;;;16.70;55.00;;;;;;4969514;28;20097;-77
2022/01/07 03:39:01;;;;;;;4.70;3.28;;;16.80;55.10;;;;;;4969328;28;20027;-77
2022/01/07 03:41:27;;;;;;;3.85;2.88;;;16.80;55.00;;;;;;4968908;28;20041;-77
2022/01/07 03:43:53;;;;;;;5.68;3.13;;;16.80;54.90;;;;;;4968873;28;20054;-77
2022/01/07 03:46:18;;;;;;;4.45;3.05;;;16.80;54.90;;;;;;4969047;28;20046;-78
2022/01/07 03:48:44;;;;;;;5.75;3.53;;;16.80;54.80;;;;;;4969403;28;20046;-77
2022/01/07 03:51:09;;;;;;;4.55;3.22;;;16.80;54.80;;;;;;4951823;28;20741;-77
2022/01/07 03:53:35;;;;;;;4.82;3.00;;;16.80;54.90;;;;;;4969189;28;20037;-77
2022/01/07 03:56:00;;;;;;;4.10;3.10;;;16.80;54.80;;;;;;4969405;28;20579;-78
2022/01/07 03:58:26;;;;;;;5.00;2.90;;;16.80;54.80;;;;;;4969278;28;20699;-77
2022/01/07 05:43:19;;;;;;;2.05;1.58;;;18.50;51.10;;;;;;5057702;23;21612;-78
2022/01/07 05:45:45;;;;;;;3.55;1.80;;;18.50;51.30;;;;;;4928812;29;20032;-78
2022/01/07 05:48:13;;;;;;;3.13;1.90;;;18.50;51.30;;;;;;4928939;29;20039;-78
2022/01/07 05:50:39;;;;;;;3.30;1.90;;;18.40;51.30;;;;;;4928878;29;20036;-78
2022/01/07 05:53:05;;;;;;;2.67;1.80;;;18.40;51.40;;;;;;4928962;29;20056;-77
2022/01/07 05:55:33;;;;;;;2.65;1.70;;;18.40;51.40;;;;;;4929293;29;20111;-78
2022/01/07 05:57:58;;;;;;;2.65;1.50;;;18.30;51.50;;;;;;4930891;29;20039;-78
2022/01/07 06:00:24;;;;;;;2.00;1.58;;;18.30;51.70;;;;;;4932485;29;20040;-78
2022/01/07 06:02:50;;;;;;;2.03;1.60;;;18.20;51.70;;;;;;4932193;29;20024;-78
2022/01/07 06:05:15;;;;;;;2.33;1.60;;;18.20;51.80;;;;;;4932680;29;20119;-78
2022/01/07 06:07:42;;;;;;;8.10;1.77;;;18.20;51.90;;;;;;4932579;29;20032;-76
2022/01/07 06:10:09;;;;;;;3.33;1.70;;;18.20;52.10;;;;;;4932897;29;20028;-78
2022/01/07 06:12:35;;;;;;;4.13;1.73;;;18.10;52.20;;;;;;4931508;29;20034;-78
2022/01/07 06:15:02;;;;;;;1.98;1.50;;;18.10;52.30;;;;;;4931960;29;20028;-78
2022/01/07 06:17:27;;;;;;;2.95;1.80;;;18.10;52.30;;;;;;4931607;29;20038;-78
2022/01/07 06:19:53;;;;;;;2.28;1.67;;;18.10;52.50;;;;;;4931579;29;20139;-78
2022/01/07 06:22:19;;;;;;;2.60;1.65;;;18.00;52.60;;;;;;4931344;29;20075;-79
2022/01/07 06:24:44;;;;;;;2.35;1.60;;;18.00;52.80;;;;;;4931969;29;20055;-78
2022/01/07 06:27:11;;;;;;;1.83;1.48;;;17.90;52.90;;;;;;4932082;29;20096;-80
2022/01/07 06:29:40;;;;;;;2.42;1.35;;;17.90;53.00;;;;;;4931383;29;20032;-80
2022/01/07 06:32:07;;;;;;;3.17;1.67;;;17.90;53.20;;;;;;4931794;29;20042;-79
2022/01/07 06:34:32;;;;;;;2.38;1.65;;;17.80;53.30;;;;;;4932213;29;20127;-80
2022/01/07 06:36:59;;;;;;;3.13;1.90;;;17.80;53.30;;;;;;4931792;29;20170;-78
2022/01/07 06:39:28;;;;;;;4.65;1.70;;;17.70;53.40;;;;;;4932140;29;20031;-78
2022/01/07 06:41:55;;;;;;;2.38;1.80;;;17.70;53.40;;;;;;4932083;29;20038;-79
2022/01/07 06:44:20;;;;;;;3.15;1.70;;;17.70;53.50;;;;;;4930988;29;20059;-79
2022/01/07 06:46:46;;;;;;;2.20;1.50;;;17.70;53.60;;;;;;4931567;29;20090;-80
2022/01/07 06:49:13;;;;;;;2.50;1.60;;;17.60;53.70;;;;;;4931696;29;20030;-79
2022/01/07 06:51:40;;;;;;;1.95;1.50;;;17.60;53.70;;;;;;4931112;29;20534;-79
2022/01/07 06:54:07;;;;;;;2.05;1.58;;;17.60;53.80;;;;;;4931382;29;20034;-80
2022/01/07 06:56:34;;;;;;;2.60;1.50;;;17.60;53.80;;;;;;4930757;29;20063;-80
2022/01/07 06:58:59;;;;;;;2.88;1.75;;;17.50;53.90;;;;;;4930732;29;20034;-79
2022/01/07 07:01:27;;;;;;;2.53;1.27;;;17.50;54.20;;;;;;4931740;29;20051;-80
2022/01/07 07:03:53;;;;;;;3.08;1.75;;;17.50;54.60;;;;;;4931139;29;20038;-82
2022/01/07 07:06:19;;;;;;;2.88;2.00;;;17.50;54.70;;;;;;4931403;29;20051;-81
2022/01/07 07:08:44;;;;;;;2.17;1.92;;;17.50;54.90;;;;;;4930846;29;20491;-78
2022/01/07 07:11:10;;;;;;;2.92;1.77;;;17.40;55.00;;;;;;4931768;29;20027;-79
2022/01/07 07:13:36;;;;;;;3.22;1.70;;;17.40;54.90;;;;;;4932209;29;20566;-80
2022/01/07 07:16:02;;;;;;;2.92;1.98;;;17.40;55.00;;;;;;4931032;29;20032;-79
2022/01/07 07:18:28;;;;;;;3.42;2.00;;;17.40;55.20;;;;;;4931098;29;20081;-83
2022/01/07 07:20:54;;;;;;;2.75;1.60;;;17.30;55.30;;;;;;4930691;29;20114;-77
2022/01/07 07:23:19;;;;;;;3.40;1.80;;;17.30;55.30;;;;;;4930962;29;20111;-81
2022/01/07 07:25:45;;;;;;;3.03;1.90;;;17.30;56.20;;;;;;4931112;29;20043;-80
2022/01/07 07:28:10;;;;;;;6.90;2.17;;;17.30;55.40;;;;;;4931645;29;20078;-82
2022/01/07 07:30:40;;;;;;;2.75;2.13;;;17.30;55.40;;;;;;4931026;29;20091;-80
2022/01/07 07:38:43;;;;;;;2.90;1.83;;;17.20;55.50;;;;;;4930636;29;20034;-78
2022/01/07 07:41:12;;;;;;;2.92;2.10;;;17.10;55.50;;;;;;4930821;29;20055;-79
2022/01/07 07:43:39;;;;;;;3.38;2.20;;;17.10;55.60;;;;;;4930894;29;20091;-81
2022/01/07 07:46:05;;;;;;;4.80;1.90;;;17.10;55.70;;;;;;4930513;29;20118;-82
2022/01/07 07:48:32;;;;;;;4.55;2.20;;;17.10;55.50;;;;;;4930395;29;20163;-76
2022/01/07 07:50:57;;;;;;;2.95;2.25;;;17.10;55.70;;;;;;4930551;29;20037;-79
2022/01/07 07:53:25;;;;;;;3.00;2.00;;;17.00;55.90;;;;;;4931452;29;20032;-80
2022/01/07 07:55:53;;;;;;;3.72;2.00;;;17.00;56.00;;;;;;4933010;29;20159;-81
2022/01/07 07:58:20;;;;;;;4.53;2.20;;;17.10;56.10;;;;;;4935301;29;20478;-80
2022/01/07 08:00:47;;;;;;;2.72;2.10;;;17.10;56.30;;;;;;4933213;29;20047;-82
2022/01/07 08:03:12;;;;;;;3.38;2.20;;;17.10;56.20;;;;;;4932102;29;20497;-81
2022/01/07 08:05:41;;;;;;;3.83;2.13;;;17.00;56.30;;;;;;4931691;29;20043;-80
2022/01/07 08:08:07;;;;;;;3.70;2.35;;;17.00;56.40;;;;;;4931498;29;20032;-80
2022/01/07 08:10:33;;;;;;;5.07;2.45;;;17.10;56.50;;;;;;4930643;29;20023;-79
2022/01/07 08:18:18;;;;;;;2.80;2.05;;;17.00;56.50;;;;;;4931100;29;20273;-76
2022/01/07 08:20:44;;;;;;;3.85;2.50;;;17.00;56.60;;;;;;4930520;29;20475;-80
2022/01/07 08:23:10;;;;;;;3.60;2.13;;;17.00;56.60;;;;;;4930726;29;20085;-78
2022/01/07 08:25:36;;;;;;;3.78;2.50;;;17.10;56.70;;;;;;4930369;29;20044;-79
2022/01/07 08:28:04;;;;;;;4.03;2.38;;;17.10;56.60;;;;;;4930678;29;20398;-80
2022/01/07 08:30:37;;;;;;;4.07;2.40;;;17.00;56.60;;;;;;4931155;29;20023;-78
2022/01/07 08:35:49;;;;;;;4.15;2.67;;;17.00;56.60;;;;;;4931206;29;20411;-80
2022/01/07 08:38:16;;;;;;;3.17;2.05;;;17.00;56.80;;;;;;4931010;29;20095;-80
2022/01/07 08:40:42;;;;;;;3.13;2.25;;;17.00;56.90;;;;;;4913733;29;20447;-79
2022/01/07 08:43:08;;;;;;;20.00;3.20;;;17.00;56.70;;;;;;4930971;29;20103;-79
2022/01/07 08:45:34;;;;;;;3.10;2.28;;;17.00;56.70;;;;;;4930979;29;20063;-80
2022/01/07 08:48:00;;;;;;;3.35;2.50;;;17.00;56.70;;;;;;4931109;29;20043;-81
2022/01/07 08:50:26;;;;;;;4.30;2.47;;;17.00;56.60;;;;;;4930634;29;20048;-79
2022/01/07 08:52:53;;;;;;;3.05;2.30;;;17.00;56.90;;;;;;4930774;29;20028;-79
2022/01/07 08:55:19;;;;;;;3.45;2.33;;;17.00;57.10;;;;;;4930517;29;20042;-78
2022/01/07 08:57:46;;;;;;;6.10;2.70;;;17.00;56.90;;;;;;4930147;29;20027;-78
2022/01/07 09:00:13;;;;;;;3.03;2.20;;;17.00;57.00;;;;;;4931042;29;20053;-79
2022/01/07 09:02:38;;;;;;;3.80;2.78;;;17.00;57.10;;;;;;4930470;29;20031;-81
2022/01/07 09:05:05;;;;;;;4.47;2.70;;;17.00;57.00;;;;;;4929767;29;20103;-79
2022/01/07 09:07:33;;;;;;;4.13;2.50;;;17.00;56.80;;;;;;4930834;29;20147;-78
2022/01/07 09:09:59;;;;;;;5.05;2.80;;;17.00;56.70;;;;;;4930556;29;20032;-83
2022/01/07 09:12:25;;;;;;;4.57;2.50;;;17.00;56.80;;;;;;4929659;29;20135;-81
2022/01/07 09:14:52;;;;;;;3.20;2.35;;;17.00;57.00;;;;;;4929396;29;20028;-81
2022/01/07 09:17:17;;;;;;;3.95;2.47;;;16.90;57.10;;;;;;4929382;29;20036;-78
2022/01/07 09:19:43;;;;;;;4.40;2.30;;;17.00;57.10;;;;;;4929133;29;20060;-79
2022/01/07 09:22:09;;;;;;;7.22;2.30;;;16.90;57.20;;;;;;4929522;29;20075;-75
2022/01/07 09:24:35;;;;;;;4.60;2.33;;;16.90;57.20;;;;;;4929142;29;20032;-76
2022/01/07 09:27:00;;;;;;;3.10;2.10;;;17.00;57.40;;;;;;4929543;29;20075;-76
2022/01/07 09:29:27;;;;;;;4.35;2.70;;;17.00;57.60;;;;;;4929639;29;20038;-77
2022/01/07 09:31:54;;;;;;;4.15;2.30;;;17.00;58.50;;;;;;4930030;29;20036;-79
2022/01/07 09:34:20;;;;;;;10.82;2.40;;;16.90;57.40;;;;;;4933187;29;20087;-77
2022/01/07 09:36:46;;;;;;;4.25;2.20;;;16.90;57.40;;;;;;4932788;29;20028;-77
2022/01/07 09:39:21;;;;;;;5.45;2.25;;;17.00;57.20;;;;;;4932816;29;20036;-77
2022/01/07 09:41:47;;;;;;;5.70;2.22;;;16.90;57.10;;;;;;4932501;29;20171;-77
2022/01/07 09:44:13;;;;;;;3.45;2.22;;;16.90;57.20;;;;;;4933509;29;20146;-77
2022/01/07 09:46:43;;;;;;;4.90;2.25;;;16.80;57.10;;;;;;4934488;29;20047;-77
2022/01/07 09:49:10;;;;;;;4.82;2.30;;;16.90;57.00;;;;;;4937130;29;20059;-77
2022/01/07 09:51:40;;;;;;;4.55;1.88;;;16.90;56.90;;;;;;4938533;29;20032;-76
2022/01/07 09:54:08;;;;;;;3.70;2.00;;;17.00;56.80;;;;;;4934300;29;20032;-77
2022/01/07 09:56:33;;;;;;;5.20;1.88;;;17.20;56.70;;;;;;4932648;29;20067;-75
2022/01/07 09:59:01;;;;;;;4.18;1.73;;;17.40;56.50;;;;;;4932406;29;20489;-76
2022/01/07 10:01:27;;;;;;;5.55;1.92;;;17.60;56.00;;;;;;4932664;29;20034;-77
2022/01/07 10:03:52;;;;;;;4.32;1.70;;;17.70;55.60;;;;;;4932230;29;20559;-78
2022/01/07 10:06:23;;;;;;;3.85;1.67;;;17.90;55.30;;;;;;4933029;29;20075;-76
2022/01/07 10:09:19;;;;;;;8.48;1.90;;;18.00;55.00;;;;;;4932646;29;20032;-79
2022/01/07 10:12:00;;;;;;;8.70;1.88;;;18.20;55.20;;;;;;4927765;29;20032;-76
2022/01/07 10:14:26;;;;;;;6.10;2.33;;;18.20;54.90;;;;;;4930541;29;20435;-77
2022/01/07 10:16:53;;;;;;;3.17;1.67;;;18.20;54.90;;;;;;4932205;29;20047;-76
2022/01/07 10:19:36;;;;;;;6.45;1.83;;;18.30;54.70;;;;;;4932146;29;20055;-77
2022/01/07 10:22:13;;;;;;;3.63;1.65;;;18.30;54.60;;;;;;4932047;29;20115;-80
2022/01/07 10:24:59;;;;;;;5.78;1.77;;;18.30;54.60;;;;;;4931878;29;20036;-77
2022/01/07 10:27:33;;;;;;;13.07;2.80;;;18.30;54.70;;;;;;4932698;29;20069;-80
2022/01/07 10:29:58;;;;;;;6.88;2.67;;;18.30;54.80;;;;;;4932224;29;20139;-78
2022/01/07 10:32:32;;;;;;;6.53;2.60;;;18.30;55.20;;;;;;4931847;29;20122;-77
2022/01/07 10:35:14;;;;;;;9.10;2.88;;;18.20;55.40;;;;;;4933106;29;20053;-77
2022/01/07 10:37:53;;;;;;;6.40;3.35;;;18.20;55.60;;;;;;4931601;29;20067;-77
2022/01/07 10:40:26;;;;;;;9.13;3.67;;;18.20;55.90;;;;;;4931789;29;20484;-76
2022/01/07 10:42:53;;;;;;;;;;;18.20;56.10;;;;;;4931965;29;20032;-77
2022/01/07 10:45:19;;;;;;;9.43;3.17;;;18.10;56.50;;;;;;4930916;29;20047;-76
2022/01/07 10:47:52;;;;;;;8.80;3.17;;;18.10;56.60;;;;;;4931270;29;20111;-76
2022/01/07 10:50:23;;;;;;;8.57;2.97;;;18.00;56.90;;;;;;4932225;29;20031;-79
2022/01/07 10:52:50;;;;;;;6.05;2.85;;;18.00;57.10;;;;;;4931767;29;20024;-77
2022/01/07 10:55:20;;;;;;;7.10;2.88;;;18.00;57.30;;;;;;4931479;29;20027;-78
2022/01/07 10:57:48;;;;;;;6.50;2.88;;;17.90;58.50;;;;;;4931628;29;20554;-78
2022/01/07 11:00:19;;;;;;;6.35;2.92;;;17.90;57.60;;;;;;4931767;29;20024;-78
2022/01/07 11:02:45;;;;;;;6.40;2.70;;;17.90;57.70;;;;;;4931607;29;20036;-76
2022/01/07 11:05:12;;;;;;;5.45;2.38;;;17.80;57.80;;;;;;4931394;29;20038;-77
2022/01/07 11:07:38;;;;;;;7.53;2.30;;;17.80;57.90;;;;;;4931946;29;20035;-76
2022/01/07 11:10:06;;;;;;;6.00;2.35;;;17.80;58.00;;;;;;4931597;29;20719;-77
2022/01/07 11:12:33;;;;;;;5.28;2.33;;;17.80;57.90;;;;;;4931293;29;20027;-78
2022/01/07 11:14:59;;;;;;;5.10;2.40;;;17.80;57.90;;;;;;4931507;29;20032;-78
2022/01/07 11:17:26;;;;;;;6.93;2.50;;;17.80;58.00;;;;;;4931946;29;20062;-79
2022/01/07 11:19:54;;;;;;;5.63;2.03;;;17.80;58.00;;;;;;4931031;29;20471;-80
2022/01/07 11:22:22;;;;;;;3.58;2.00;;;17.90;58.00;;;;;;4931599;29;20035;-78
2022/01/07 11:24:54;;;;;;;5.35;2.15;;;17.90;58.10;;;;;;4931893;29;20090;-80
2022/01/07 11:27:25;;;;;;;5.25;2.25;;;17.90;58.10;;;;;;4931286;29;20043;-80
2022/01/07 11:29:51;;;;;;;3.17;1.70;;;17.90;58.10;;;;;;4930703;29;20024;-77
2022/01/07 11:32:26;;;;;;;6.32;2.10;;;17.90;58.10;;;;;;4931682;29;20090;-78
2022/01/07 11:34:53;;;;;;;6.15;1.80;;;17.90;58.30;;;;;;4935280;29;20442;-78
2022/01/07 11:37:35;;;;;;;3.63;1.30;;;17.90;58.30;;;;;;4934146;29;20070;-77
2022/01/07 11:40:01;;;;;;;4.22;1.92;;;18.00;59.00;;;;;;4932313;29;20339;-79
2022/01/07 11:42:40;;;;;;;4.07;1.58;;;18.00;59.00;;;;;;4930814;29;20474;-80
2022/01/07 11:45:27;;;;;;;4.05;1.60;;;18.00;58.80;;;;;;4931115;29;20078;-79
2022/01/07 11:47:54;;;;;;;4.35;1.80;;;18.10;58.80;;;;;;4931111;29;20043;-78
2022/01/07 11:50:20;;;;;;;4.57;1.73;;;18.10;58.80;;;;;;4931165;29;20068;-78
2022/01/07 11:53:05;;;;;;;6.35;2.00;;;18.10;58.70;;;;;;4932361;29;20067;-78
2022/01/07 11:55:31;;;;;;;5.25;1.63;;;18.10;58.60;;;;;;4930526;29;20106;-77
2022/01/07 11:58:01;;;;;;;5.22;1.85;;;18.10;59.60;;;;;;4930717;29;20479;-78
2022/01/07 12:00:56;;;;;;;5.15;1.90;;;18.20;58.70;;;;;;4931057;29;20067;-79
2022/01/07 12:03:35;;;;;;;9.00;1.67;;;18.20;58.50;;;;;;4931243;29;20781;-78
2022/01/07 12:06:20;;;;;;;5.63;1.40;;;18.20;58.50;;;;;;4931040;29;20102;-78
2022/01/07 12:09:05;;;;;;;5.18;1.75;;;18.20;58.40;;;;;;4931754;29;20032;-74
2022/01/07 12:11:36;;;;;;;4.80;1.77;;;18.20;59.40;;;;;;4932122;29;20035;-76
2022/01/07 12:14:10;;;;;;;4.30;1.60;;;18.20;58.40;;;;;;4931088;29;20054;-68
2022/01/07 12:16:37;;;;;;;3.75;1.50;;;18.20;58.50;;;;;;4931095;29;20038;-71
2022/01/07 12:19:12;;;;;;;4.82;1.50;;;18.20;58.40;;;;;;4930464;29;20035;-73
2022/01/07 12:21:39;;;;;;;3.88;1.63;;;18.30;58.30;;;;;;4931429;29;20788;-70
2022/01/07 12:24:06;;;;;;;5.10;1.58;;;18.30;58.40;;;;;;4931012;29;20024;-69
2022/01/07 12:26:32;;;;;;;3.63;1.60;;;18.30;58.40;;;;;;4930714;29;20035;-71
2022/01/07 12:28:58;;;;;;;4.72;1.33;;;18.40;58.30;;;;;;4930216;29;20039;-70
2022/01/07 12:31:23;;;;;;;5.03;1.67;;;18.30;58.20;;;;;;4930090;29;20071;-69
2022/01/07 12:33:55;;;;;;;3.47;1.40;;;18.40;58.30;;;;;;4930196;29;20146;-70
2022/01/07 12:36:36;;;;;;;4.90;1.70;;;18.40;58.70;;;;;;4929657;29;20087;-70
2022/01/07 12:39:10;;;;;;;5.75;1.65;;;18.40;58.80;;;;;;4929038;29;20118;-72
2022/01/07 12:41:36;;;;;;;4.97;1.52;;;18.50;58.80;;;;;;4929974;29;20023;-72
2022/01/07 12:44:06;;;;;;;6.38;1.70;;;18.50;58.70;;;;;;4928625;29;20150;-72
2022/01/07 12:46:32;;;;;;;6.60;1.48;;;18.50;58.50;;;;;;4928932;29;20054;-71
2022/01/07 12:48:58;;;;;;;4.32;1.33;;;18.50;58.40;;;;;;4929398;29;20032;-69
2022/01/07 12:51:24;;;;;;;5.32;1.45;;;18.60;58.40;;;;;;4929665;29;20110;-70
2022/01/07 12:54:01;;;;;;;6.60;1.48;;;18.60;58.60;;;;;;4929410;29;20035;-72
2022/01/07 12:56:30;;;;;;;8.18;1.45;;;18.60;58.60;;;;;;4929421;29;20147;-70
2022/01/07 12:58:56;;;;;;;8.77;1.60;;;18.60;58.60;;;;;;4929061;29;20479;-72
2022/01/07 13:01:23;;;;;;;15.07;1.95;;;18.60;58.80;;;;;;4929185;29;20062;-70
2022/01/07 13:04:08;;;;;;;8.57;1.77;;;18.60;58.90;;;;;;4929304;29;20027;-69
2022/01/07 13:06:45;;;;;;;15.13;1.85;;;18.70;59.00;;;;;;4929238;29;20082;-69
2022/01/07 13:09:12;;;;;;;8.52;2.03;;;18.70;59.40;;;;;;4933612;29;20023;-70
2022/01/07 13:11:38;;;;;;;9.40;1.60;;;18.70;59.10;;;;;;4933575;29;20128;-71
2022/01/07 13:14:09;;;;;;;9.55;1.50;;;18.70;59.20;;;;;;4933153;29;20090;-71
2022/01/07 13:16:36;;;;;;;10.07;1.65;;;18.70;59.10;;;;;;4933505;29;20051;-71
2022/01/07 13:19:09;;;;;;;9.23;1.55;;;18.70;59.10;;;;;;4934615;29;20032;-71
2022/01/07 13:21:39;;;;;;;10.55;1.50;;;18.70;59.00;;;;;;4935378;29;20035;-70
2022/01/07 13:24:05;;;;;;;9.20;1.50;;;18.70;59.10;;;;;;4937480;29;20060;-69
2022/01/07 13:26:37;;;;;;;8.05;1.50;;;18.80;59.10;;;;;;4939657;29;20047;-69
2022/01/07 13:29:25;;;;;;;7.25;1.52;;;18.80;58.90;;;;;;4937736;29;20096;-67
2022/01/07 13:32:06;;;;;;;4.53;1.38;;;18.80;58.80;;;;;;4933251;29;20036;-69
2022/01/07 13:34:35;;;;;;;5.70;1.50;;;18.90;58.70;;;;;;4932858;29;20040;-68
2022/01/07 13:37:19;;;;;;;3.67;1.45;;;18.90;58.60;;;;;;4915851;29;20082;-69
2022/01/07 13:39:53;;;;;;;2.88;1.10;;;19.00;58.50;;;;;;4932407;29;20036;-75
2022/01/07 13:42:23;;;;;;;4.72;1.23;;;19.00;58.50;;;;;;4935310;29;20054;-86
2022/01/07 13:44:56;;;;;;;5.32;1.50;;;19.00;58.40;;;;;;4934853;29;20134;-80
2022/01/07 13:47:30;;;;;;;4.63;1.42;;;19.10;58.30;;;;;;4935474;29;20047;-82
2022/01/07 13:50:22;;;;;;;5.78;1.80;;;19.10;58.10;;;;;;4935054;29;20107;-81
2022/01/07 13:52:48;;;;;;;5.35;1.65;;;19.10;58.00;;;;;;4935865;29;20046;-84
2022/01/07 13:55:33;;;;;;;5.85;1.30;;;19.10;57.80;;;;;;4934424;29;20054;-85
2022/01/07 13:58:14;;;;;;;7.13;1.50;;;19.20;57.60;;;;;;4933418;29;20027;-84
2022/01/07 14:00:41;;;;;;;5.38;1.52;;;19.20;57.50;;;;;;4933104;29;20067;-82
2022/01/07 14:03:08;;;;;;;4.80;1.40;;;19.30;57.40;;;;;;4933589;29;20099;-86
2022/01/07 14:05:35;;;;;;;3.92;1.25;;;19.30;57.30;;;;;;4933717;29;20028;-84
2022/01/07 14:08:06;;;;;;;10.65;1.55;;;19.40;57.20;;;;;;4933339;29;20042;-82
2022/01/07 14:10:35;;;;;;;6.85;1.45;;;19.30;57.10;;;;;;4933536;29;20156;-77
2022/01/07 14:13:06;;;;;;;8.18;1.70;;;19.40;57.00;;;;;;4932568;29;20035;-78
2022/01/07 14:15:44;;;;;;;6.97;1.27;;;19.40;57.00;;;;;;4932741;29;20031;-78
2022/01/07 14:18:16;;;;;;;6.38;1.10;;;19.40;56.80;;;;;;4932315;29;20378;-80
2022/01/07 14:20:43;;;;;;;3.55;1.42;;;19.30;56.80;;;;;;4932624;29;20458;-80
2022/01/07 14:23:15;;;;;;;3.15;1.45;;;19.30;56.80;;;;;;4932178;29;20028;-77
2022/01/07 14:25:42;;;;;;;3.33;1.30;;;19.40;56.80;;;;;;4932104;29;20728;-80
2022/01/07 14:28:07;;;;;;;3.92;1.10;;;19.40;57.20;;;;;;4932272;29;20134;-78
2022/01/07 14:30:33;;;;;;;6.50;1.42;;;19.40;56.60;;;;;;4932105;29;20035;-82
2022/01/07 14:33:00;;;;;;;4.25;1.40;;;19.40;56.50;;;;;;4933104;29;20471;-77
2022/01/07 14:35:26;;;;;;;5.32;1.27;;;19.40;56.60;;;;;;4932420;29;20036;-78
2022/01/07 14:37:51;;;;;;;4.20;1.20;;;19.50;56.60;;;;;;4914340;29;20043;-78
2022/01/07 14:40:17;;;;;;;4.45;1.20;;;19.50;56.50;;;;;;4931831;29;20038;-77
2022/01/07 14:42:42;;;;;;;4.05;1.30;;;19.50;56.30;;;;;;4932086;29;20024;-79
2022/01/07 14:45:10;;;;;;;3.53;1.00;;;19.50;56.20;;;;;;4932230;29;20052;-80
2022/01/07 14:47:39;;;;;;;3.50;1.10;;;19.60;56.30;;;;;;4932135;29;20062;-81
2022/01/07 14:50:05;;;;;;;3.90;1.05;;;19.60;56.20;;;;;;4932184;29;20040;-79